Latest Weather Observations for Longerenong

IDV60801

Issued at 5:35 pm EST Thursday 31 July 2014 (issued every 30 minutes, with the page automatically refreshed every 10 minutes)

About weather observations | Map of weather stations | Latest weather observations for VIC | Other Formats
Station Details ID: 079028 Name: LONGERENONG Lat: -36.67 Lon: 142.30 Height: 133.0 m
Data from the previous 72 hours. | See also: Recent months at Longerenong
Date/Time
EST
Temp
°C
App
Temp
°C
Dew
Point
Rel
Hum
%
Delta-T
°C
Wind Press
QNH
hPa
Press
MSL
hPa
Rain
since 9 am
mm
Dir
 
Spd
km/h
Gust
km/h
Spd
kts
Gust
kts
31/05:30pm 7.4 - - - - WNW 15 20 8 11 - - 4.8
31/05:00pm 7.4 - - - - WNW 20 28 11 15 - - 4.2
31/04:30pm 7.2 - - - - W 20 26 11 14 - - 3.8
31/04:00pm 7.3 - - - - W 26 39 14 21 - - 3.2
31/03:30pm 7.5 - - - - WSW 32 46 17 25 - - 2.8
31/03:00pm 8.1 - - - - WSW 33 46 18 25 - - 2.0
31/02:30pm 9.5 - - - - WSW 33 48 18 26 - - 1.6
31/02:00pm 9.5 - - - - WSW 43 61 23 33 - - 1.4
31/01:45pm 11.6 - - - - W 52 63 28 34 - - 0.6
31/01:30pm 14.1 - - - - NW 44 65 24 35 - - 0.0
31/01:00pm 16.0 - - - - NW 48 67 26 36 - - 0.0
31/12:30pm 15.3 - - - - NW 48 70 26 38 - - 0.0
31/12:00pm 16.1 - - - - NW 50 72 27 39 - - 0.0
31/11:30am 15.4 - - - - NW 48 69 26 37 - - 0.0
31/11:08am 14.5 - - - - NNW 43 65 23 35 - - 0.0
31/11:00am 14.4 - - - - NNW 41 56 22 30 - - 0.0
31/10:45am 13.9 - - - - NNW 41 59 22 32 - - 0.0
31/10:30am 13.4 - - - - NNW 41 57 22 31 - - 0.0
31/10:00am 12.7 - - - - NNW 35 46 19 25 - - 0.0
31/09:30am 11.6 - - - - NNW 30 41 16 22 - - 0.0
31/09:00am 9.9 - - - - N 24 35 13 19 - - 0.2
31/08:30am 8.6 - - - - N 22 28 12 15 - - 0.2
31/08:00am 7.9 - - - - N 22 30 12 16 - - 0.2
31/07:30am 7.8 - - - - N 24 32 13 17 - - 0.2
31/07:00am 8.0 - - - - N 28 37 15 20 - - 0.2
31/06:30am 8.0 - - - - N 24 30 13 16 - - 0.2
31/06:00am 8.3 - - - - N 20 28 11 15 - - 0.2
31/05:30am 8.5 - - - - N 20 28 11 15 - - 0.2
31/05:00am 8.8 - - - - N 20 28 11 15 - - 0.2
31/04:30am 9.0 - - - - N 20 28 11 15 - - 0.2
31/04:00am 9.2 - - - - N 19 24 10 13 - - 0.2
31/03:30am 10.3 - - - - N 20 28 11 15 - - 0.0
31/03:00am 11.0 - - - - NNW 22 30 12 16 - - 0.0
31/02:30am 10.9 - - - - NNW 22 28 12 15 - - 0.0
31/02:00am 11.1 - - - - NNW 20 28 11 15 - - 0.0
31/01:30am 11.4 - - - - NNW 22 30 12 16 - - 0.0
31/01:00am 11.9 - - - - NNW 22 28 12 15 - - 0.0
31/12:30am 11.9 - - - - NNW 24 37 13 20 - - 0.0
31/12:00am 11.4 - - - - NNW 20 30 11 16 - - 0.0
 
Date/Time
EST
Temp
°C
App
Temp
°C
Dew
Point
Rel
Hum
%
Delta-T
°C
Wind Press
QNH
hPa
Press
MSL
hPa
Rain
since 9 am
mm
Dir
 
Spd
km/h
Gust
km/h
Spd
kts
Gust
kts
30/11:30pm 11.4 - - - - NNW 24 32 13 17 - - 0.0
30/11:00pm 11.6 - - - - NNW 22 33 12 18 - - 0.0
30/10:30pm 11.7 - - - - NNW 22 32 12 17 - - 0.0
30/10:00pm 12.2 - - - - NNW 24 30 13 16 - - 0.0
30/09:30pm 12.6 - - - - NNW 22 28 12 15 - - 0.0
30/09:00pm 13.1 - - - - NNW 26 35 14 19 - - 0.0
30/08:30pm 12.8 - - - - NNW 24 32 13 17 - - 0.0
30/08:00pm 12.8 - - - - NNW 22 30 12 16 - - 0.0
30/07:30pm 12.5 - - - - N 19 26 10 14 - - 0.0
30/07:00pm 12.3 - - - - NNW 13 19 7 10 - - 0.0
30/06:30pm 13.3 - - - - NW 19 32 10 17 - - 0.0
30/06:00pm 12.8 - - - - NW 19 24 10 13 - - 0.0
30/05:30pm 14.4 - - - - NW 28 37 15 20 - - 0.0
30/05:00pm 14.7 - - - - NW 26 37 14 20 - - 0.0
30/04:30pm 14.9 - - - - NW 26 37 14 20 - - 0.0
30/04:00pm 14.9 - - - - NW 24 33 13 18 - - 0.0
30/03:30pm 14.5 - - - - WNW 20 30 11 16 - - 0.0
30/03:00pm 15.0 - - - - WNW 28 37 15 20 - - 0.0
30/02:30pm 15.4 - - - - WNW 28 39 15 21 - - 0.0
30/02:00pm 15.5 - - - - WNW 32 44 17 24 - - 0.0
30/01:30pm 15.0 - - - - WNW 30 41 16 22 - - 0.0
30/01:00pm 15.3 - - - - WNW 32 48 17 26 - - 0.0
30/12:54pm 15.0 - - - - WNW 28 48 15 26 - - 0.0
30/12:30pm 15.1 - - - - WNW 30 43 16 23 - - 0.0
30/12:00pm 14.8 - - - - NW 33 48 18 26 - - 0.0
30/11:30am 14.5 - - - - NW 30 41 16 22 - - 0.0
30/11:00am 13.7 - - - - NW 28 37 15 20 - - 0.0
30/10:30am 13.0 - - - - NW 30 41 16 22 - - 0.0
30/10:00am 12.7 - - - - NW 26 41 14 22 - - 0.0
30/09:30am 12.3 - - - - NW 22 32 12 17 - - 0.0
30/09:00am 12.1 - - - - NW 22 30 12 16 - - 3.2
30/08:30am 11.9 - - - - NW 13 20 7 11 - - 3.2
30/08:00am 11.8 - - - - NW 19 26 10 14 - - 2.4
30/07:30am 11.8 - - - - NW 17 22 9 12 - - 2.0
30/07:00am 11.7 - - - - NNW 17 22 9 12 - - 2.0
30/06:30am 11.6 - - - - NNW 15 20 8 11 - - 1.4
30/06:00am 11.6 - - - - NW 13 19 7 10 - - 1.4
30/05:30am 11.7 - - - - NW 17 20 9 11 - - 1.4
30/05:00am 11.9 - - - - NW 19 26 10 14 - - 1.4
30/04:30am 11.7 - - - - WNW 20 28 11 15 - - 1.4
30/04:00am 12.0 - - - - NW 19 28 10 15 - - 1.4
30/03:30am 12.1 - - - - WNW 19 26 10 14 - - 1.4
30/03:00am 12.0 - - - - NW 22 30 12 16 - - 1.4
30/02:30am 12.1 - - - - NW 17 26 9 14 - - 1.4
30/02:00am 12.2 - - - - WNW 24 37 13 20 - - 1.4
30/01:30am 12.3 - - - - WNW 24 32 13 17 - - 1.4
30/01:00am 12.1 - - - - WNW 28 39 15 21 - - 1.4
30/12:30am 12.2 - - - - WNW 26 39 14 21 - - 1.4
30/12:00am 12.4 - - - - NW 22 30 12 16 - - 1.4
 
Date/Time
EST
Temp
°C
App
Temp
°C
Dew
Point
Rel
Hum
%
Delta-T
°C
Wind Press
QNH
hPa
Press
MSL
hPa
Rain
since 9 am
mm
Dir
 
Spd
km/h
Gust
km/h
Spd
kts
Gust
kts
29/11:30pm 12.8 - - - - WNW 24 33 13 18 - - 1.2
29/11:00pm 12.8 - - - - WNW 26 35 14 19 - - 1.2
29/10:30pm 12.5 - - - - NW 24 35 13 19 - - 1.0
29/10:00pm 12.3 - - - - NW 20 30 11 16 - - 1.0
29/09:30pm 12.0 - - - - NW 19 26 10 14 - - 1.0
29/09:00pm 12.2 - - - - NW 22 28 12 15 - - 1.0
29/08:41pm 12.4 - - - - WNW 28 46 15 25 - - 1.0
29/08:30pm 12.6 - - - - WNW 35 46 19 25 - - 0.8
29/08:00pm 13.1 - - - - WNW 28 39 15 21 - - 0.6
29/07:30pm 13.0 - - - - WNW 24 33 13 18 - - 0.6
29/07:00pm 13.3 - - - - WNW 26 35 14 19 - - 0.6
29/06:30pm 13.2 - - - - WNW 22 35 12 19 - - 0.6
29/06:00pm 13.8 - - - - WNW 30 43 16 23 - - 0.6
29/05:30pm 13.8 - - - - WNW 28 37 15 20 - - 0.4
29/05:00pm 14.4 - - - - WNW 32 46 17 25 - - 0.4
29/04:30pm 14.8 - - - - WNW 30 48 16 26 - - 0.4
29/04:29pm 14.7 - - - - WNW 28 48 15 26 - - 0.4
29/04:00pm 13.8 - - - - WNW 32 43 17 23 - - 0.2
29/03:30pm 15.4 - - - - NW 33 52 18 28 - - 0.0
29/03:25pm 15.7 - - - - NW 33 52 18 28 - - 0.0
29/03:00pm 15.1 - - - - NW 39 54 21 29 - - 0.0
29/02:30pm 15.4 - - - - NW 39 59 21 32 - - 0.0
29/02:00pm 15.2 - - - - WNW 39 59 21 32 - - 0.0
29/01:46pm 15.3 - - - - NW 35 56 19 30 - - 0.0
29/01:30pm 14.9 - - - - WNW 39 54 21 29 - - 0.0
29/01:04pm 15.6 - - - - NW 35 56 19 30 - - 0.0
29/01:00pm 15.4 - - - - NW 33 48 18 26 - - 0.0
29/12:30pm 14.9 - - - - WNW 39 50 21 27 - - 0.0
29/12:00pm 14.2 - - - - NW 32 44 17 24 - - 0.0
29/11:30am 13.3 - - - - NW 32 48 17 26 - - 0.0
29/11:00am 12.7 - - - - NW 33 44 18 24 - - 0.0
29/10:30am 12.3 - - - - NNW 35 46 19 25 - - 0.0
29/10:00am 11.6 - - - - NW 33 44 18 24 - - 0.0
29/09:30am 11.2 - - - - NW 28 37 15 20 - - 0.0
29/09:00am 10.3 - - - - NNW 26 35 14 19 - - 0.0
29/08:30am 9.4 - - - - NNW 28 37 15 20 - - 0.0
29/08:00am 8.9 - - - - NNW 26 35 14 19 - - 0.0
29/07:30am 8.7 - - - - NNW 26 32 14 17 - - 0.0
29/07:00am 8.7 - - - - NNW 24 32 13 17 - - 0.0
29/06:30am 8.3 - - - - NNW 20 26 11 14 - - 0.0
29/06:00am 7.7 - - - - NNW 17 20 9 11 - - 0.0
29/05:30am 7.7 - - - - NNW 17 22 9 12 - - 0.0
29/05:00am 8.0 - - - - NNW 20 26 11 14 - - 0.0
29/04:30am 7.3 - - - - NNW 17 22 9 12 - - 0.0
29/04:00am 7.1 - - - - NNW 17 20 9 11 - - 0.0
29/03:30am 7.4 - - - - NNW 19 24 10 13 - - 0.0
29/03:00am 7.2 - - - - NNW 17 22 9 12 - - 0.0
29/02:30am 6.9 - - - - NNW 17 22 9 12 - - 0.0
29/02:00am 6.8 - - - - NNW 17 22 9 12 - - 0.0
29/01:30am 6.7 - - - - NNW 17 22 9 12 - - 0.0
29/01:00am 7.0 - - - - NNW 17 20 9 11 - - 0.0
29/12:30am 7.3 - - - - NNW 17 22 9 12 - - 0.0
29/12:00am 7.4 - - - - NNW 15 19 8 10 - - 0.0
 
Date/Time
EST
Temp
°C
App
Temp
°C
Dew
Point
Rel
Hum
%
Delta-T
°C
Wind Press
QNH
hPa
Press
MSL
hPa
Rain
since 9 am
mm
Dir
 
Spd
km/h
Gust
km/h
Spd
kts
Gust
kts
28/11:30pm 7.6 - - - - NNW 13 17 7 9 - - 0.0
28/11:00pm 7.4 - - - - NNW 11 15 6 8 - - 0.0
28/10:30pm 7.6 - - - - NNW 13 15 7 8 - - 0.0
28/10:00pm 7.8 - - - - NNW 11 15 6 8 - - 0.0
28/09:30pm 7.9 - - - - NNW 13 19 7 10 - - 0.0
28/09:00pm 7.7 - - - - NNW 15 19 8 10 - - 0.0
28/08:30pm 7.0 - - - - NNW 11 13 6 7 - - 0.0
28/08:00pm 7.8 - - - - NNW 13 17 7 9 - - 0.0
28/07:30pm 6.9 - - - - NW 7 9 4 5 - - 0.0
28/07:00pm 7.8 - - - - NW 7 9 4 5 - - 0.0
28/06:30pm 8.6 - - - - NNW 9 11 5 6 - - 0.0
28/06:00pm 10.8 - - - - NW 13 17 7 9 - - 0.0

Other Formats:

Comma delimited format used in spreadsheet applications
http://www.bom.gov.au/fwo/IDV60801/IDV60801.95835.axf

JavaScript Object Notation format (JSON) in row-major order
http://www.bom.gov.au/fwo/IDV60801/IDV60801.95835.json